sensor_id;sensor_type;location;lat;lon;timestamp;pressure;altitude;pressure_sealevel;temperature;humidity
19827;BME280;10074;52.018;4.726;2022-09-02T00:01:54;46090.94;;;-144.79;100.00
19827;BME280;10074;52.018;4.726;2022-09-02T00:06:55;46096.94;;;-144.79;100.00
19827;BME280;10074;52.018;4.726;2022-09-02T00:11:56;46086.94;;;-144.79;100.00
19827;BME280;10074;52.018;4.726;2022-09-02T00:16:57;46098.97;;;-144.79;100.00
19827;BME280;10074;52.018;4.726;2022-09-02T00:22:00;46104.97;;;-144.79;100.00
19827;BME280;10074;52.018;4.726;2022-09-02T00:27:01;46094.94;;;-144.79;100.00
19827;BME280;10074;52.018;4.726;2022-09-02T00:32:02;46098.97;;;-144.79;100.00
19827;BME280;10074;52.018;4.726;2022-09-02T00:37:02;46113.00;;;-144.79;100.00
19827;BME280;10074;52.018;4.726;2022-09-02T00:42:03;46115.00;;;-144.79;100.00
19827;BME280;10074;52.018;4.726;2022-09-02T00:47:05;46113.00;;;-144.79;100.00
19827;BME280;10074;52.018;4.726;2022-09-02T00:52:12;46123.00;;;-144.79;100.00
19827;BME280;10074;52.018;4.726;2022-09-02T00:57:16;46123.00;;;-144.79;100.00
19827;BME280;10074;52.018;4.726;2022-09-02T01:02:19;46098.97;;;-144.79;100.00
19827;BME280;10074;52.018;4.726;2022-09-02T01:07:27;46129.03;;;-144.79;100.00
19827;BME280;10074;52.018;4.726;2022-09-02T01:12:29;46108.97;;;-144.79;100.00
19827;BME280;10074;52.018;4.726;2022-09-02T01:17:32;46115.00;;;-144.79;100.00
19827;BME280;10074;52.018;4.726;2022-09-02T01:22:33;46108.97;;;-144.79;100.00
19827;BME280;10074;52.018;4.726;2022-09-02T01:27:34;46131.03;;;-144.79;100.00
19827;BME280;10074;52.018;4.726;2022-09-02T01:32:34;46098.97;;;-144.79;100.00
19827;BME280;10074;52.018;4.726;2022-09-02T01:37:35;46121.00;;;-144.79;100.00
19827;BME280;10074;52.018;4.726;2022-09-02T01:42:39;46143.06;;;-144.79;100.00
19827;BME280;10074;52.018;4.726;2022-09-02T01:47:41;46108.97;;;-144.79;100.00
19827;BME280;10074;52.018;4.726;2022-09-02T01:52:41;46137.06;;;-144.79;100.00
19827;BME280;10074;52.018;4.726;2022-09-02T01:57:42;46141.06;;;-144.79;100.00
19827;BME280;10074;52.018;4.726;2022-09-02T02:02:42;46143.06;;;-144.79;100.00
19827;BME280;10074;52.018;4.726;2022-09-02T02:07:43;46123.00;;;-144.79;100.00
19827;BME280;10074;52.018;4.726;2022-09-02T02:12:43;46133.03;;;-144.79;100.00
19827;BME280;10074;52.018;4.726;2022-09-02T02:17:44;46153.09;;;-144.79;100.00
19827;BME280;10074;52.018;4.726;2022-09-02T02:22:45;46125.03;;;-144.79;100.00
19827;BME280;10074;52.018;4.726;2022-09-02T02:27:46;46133.03;;;-144.79;100.00
19827;BME280;10074;52.018;4.726;2022-09-02T02:32:47;46143.06;;;-144.79;100.00
19827;BME280;10074;52.018;4.726;2022-09-02T02:37:48;46171.13;;;-144.79;100.00
19827;BME280;10074;52.018;4.726;2022-09-02T02:42:50;46153.09;;;-144.79;100.00
19827;BME280;10074;52.018;4.726;2022-09-02T02:47:53;46129.03;;;-144.79;100.00
19827;BME280;10074;52.018;4.726;2022-09-02T02:52:54;46129.03;;;-144.79;100.00
19827;BME280;10074;52.018;4.726;2022-09-02T02:57:55;46110.97;;;-144.79;100.00
19827;BME280;10074;52.018;4.726;2022-09-02T03:03:02;46141.06;;;-144.79;100.00
19827;BME280;10074;52.018;4.726;2022-09-02T03:08:05;46145.06;;;-144.79;100.00
19827;BME280;10074;52.018;4.726;2022-09-02T03:13:08;46135.03;;;-144.79;100.00
19827;BME280;10074;52.018;4.726;2022-09-02T03:18:09;46121.00;;;-144.79;100.00
19827;BME280;10074;52.018;4.726;2022-09-02T03:23:10;46123.00;;;-144.79;100.00
19827;BME280;10074;52.018;4.726;2022-09-02T03:28:12;46117.00;;;-144.79;100.00
19827;BME280;10074;52.018;4.726;2022-09-02T03:33:12;46108.97;;;-144.79;100.00
19827;BME280;10074;52.018;4.726;2022-09-02T03:38:13;46135.03;;;-144.79;100.00
19827;BME280;10074;52.018;4.726;2022-09-02T03:43:13;46115.00;;;-144.79;100.00
19827;BME280;10074;52.018;4.726;2022-09-02T03:48:14;46143.06;;;-144.79;100.00
19827;BME280;10074;52.018;4.726;2022-09-02T03:53:14;46129.03;;;-144.79;100.00
19827;BME280;10074;52.018;4.726;2022-09-02T03:58:15;46115.00;;;-144.79;100.00
19827;BME280;10074;52.018;4.726;2022-09-02T04:03:16;46113.00;;;-144.79;100.00
19827;BME280;10074;52.018;4.726;2022-09-02T04:08:18;46110.97;;;-144.79;100.00
19827;BME280;10074;52.018;4.726;2022-09-02T04:13:19;46121.00;;;-144.79;100.00
19827;BME280;10074;52.018;4.726;2022-09-02T04:18:19;46108.97;;;-144.79;100.00
19827;BME280;10074;52.018;4.726;2022-09-02T04:23:20;46125.03;;;-144.79;100.00
19827;BME280;10074;52.018;4.726;2022-09-02T04:28:20;46135.03;;;-144.79;100.00
19827;BME280;10074;52.018;4.726;2022-09-02T04:33:21;46110.97;;;-144.79;100.00
19827;BME280;10074;52.018;4.726;2022-09-02T04:38:21;46129.03;;;-144.79;100.00
19827;BME280;10074;52.018;4.726;2022-09-02T04:43:22;46133.03;;;-144.79;100.00
19827;BME280;10074;52.018;4.726;2022-09-02T04:48:22;46115.00;;;-144.79;100.00
19827;BME280;10074;52.018;4.726;2022-09-02T04:53:24;46123.00;;;-144.79;100.00
19827;BME280;10074;52.018;4.726;2022-09-02T04:58:24;46127.03;;;-144.79;100.00
19827;BME280;10074;52.018;4.726;2022-09-02T05:03:25;46115.00;;;-144.79;100.00
19827;BME280;10074;52.018;4.726;2022-09-02T05:08:27;46113.00;;;-144.79;100.00
19827;BME280;10074;52.018;4.726;2022-09-02T05:13:27;46110.97;;;-144.79;100.00
19827;BME280;10074;52.018;4.726;2022-09-02T05:18:28;46098.97;;;-144.79;100.00
19827;BME280;10074;52.018;4.726;2022-09-02T05:23:29;46108.97;;;-144.79;100.00
19827;BME280;10074;52.018;4.726;2022-09-02T05:28:29;46127.03;;;-144.79;100.00
19827;BME280;10074;52.018;4.726;2022-09-02T05:33:31;46119.00;;;-144.79;100.00
19827;BME280;10074;52.018;4.726;2022-09-02T05:38:32;46098.97;;;-144.79;100.00
19827;BME280;10074;52.018;4.726;2022-09-02T05:43:37;46133.03;;;-144.79;100.00
19827;BME280;10074;52.018;4.726;2022-09-02T05:48:38;46108.97;;;-144.79;100.00
19827;BME280;10074;52.018;4.726;2022-09-02T05:53:59;46119.00;;;-144.79;100.00
19827;BME280;10074;52.018;4.726;2022-09-02T05:58:59;46127.03;;;-144.79;100.00
19827;BME280;10074;52.018;4.726;2022-09-02T06:04:00;46133.03;;;-144.79;100.00
19827;BME280;10074;52.018;4.726;2022-09-02T06:09:01;46119.00;;;-144.79;100.00
19827;BME280;10074;52.018;4.726;2022-09-02T06:14:03;46110.97;;;-144.79;100.00
19827;BME280;10074;52.018;4.726;2022-09-02T06:19:05;46117.00;;;-144.79;100.00
19827;BME280;10074;52.018;4.726;2022-09-02T06:24:07;46121.00;;;-144.79;100.00
19827;BME280;10074;52.018;4.726;2022-09-02T06:29:09;46092.94;;;-144.79;100.00
19827;BME280;10074;52.018;4.726;2022-09-02T06:34:11;46121.00;;;-144.79;100.00
19827;BME280;10074;52.018;4.726;2022-09-02T06:39:16;46119.00;;;-144.79;100.00
19827;BME280;10074;52.018;4.726;2022-09-02T06:44:18;46121.00;;;-144.79;100.00
19827;BME280;10074;52.018;4.726;2022-09-02T06:49:21;46110.97;;;-144.79;100.00
19827;BME280;10074;52.018;4.726;2022-09-02T06:54:22;46123.00;;;-144.79;100.00
19827;BME280;10074;52.018;4.726;2022-09-02T06:59:23;46104.97;;;-144.79;100.00
19827;BME280;10074;52.018;4.726;2022-09-02T07:04:23;46098.97;;;-144.79;100.00
19827;BME280;10074;52.018;4.726;2022-09-02T07:09:42;46115.00;;;-144.79;100.00
19827;BME280;10074;52.018;4.726;2022-09-02T07:14:43;46096.94;;;-144.79;100.00
19827;BME280;10074;52.018;4.726;2022-09-02T07:19:44;46121.00;;;-144.79;100.00
19827;BME280;10074;52.018;4.726;2022-09-02T07:24:44;46119.00;;;-144.79;100.00
19827;BME280;10074;52.018;4.726;2022-09-02T07:29:45;46110.97;;;-144.79;100.00
19827;BME280;10074;52.018;4.726;2022-09-02T07:34:48;46121.00;;;-144.79;100.00
19827;BME280;10074;52.018;4.726;2022-09-02T07:39:48;46129.03;;;-144.79;100.00
19827;BME280;10074;52.018;4.726;2022-09-02T07:44:49;46125.03;;;-144.79;100.00
19827;BME280;10074;52.018;4.726;2022-09-02T07:49:50;46086.94;;;-144.79;100.00
19827;BME280;10074;52.018;4.726;2022-09-02T07:54:50;46117.00;;;-144.79;100.00
19827;BME280;10074;52.018;4.726;2022-09-02T07:59:51;46135.03;;;-144.79;100.00
19827;BME280;10074;52.018;4.726;2022-09-02T08:04:51;46123.00;;;-144.79;100.00
19827;BME280;10074;52.018;4.726;2022-09-02T08:09:52;46115.00;;;-144.79;100.00
19827;BME280;10074;52.018;4.726;2022-09-02T08:14:52;46135.03;;;-144.79;100.00
19827;BME280;10074;52.018;4.726;2022-09-02T08:19:52;46137.06;;;-144.79;100.00
19827;BME280;10074;52.018;4.726;2022-09-02T08:24:53;46135.03;;;-144.79;100.00
19827;BME280;10074;52.018;4.726;2022-09-02T08:29:53;46131.03;;;-144.79;100.00
19827;BME280;10074;52.018;4.726;2022-09-02T08:34:53;46127.03;;;-144.79;100.00
19827;BME280;10074;52.018;4.726;2022-09-02T08:39:54;46129.03;;;-144.79;100.00
19827;BME280;10074;52.018;4.726;2022-09-02T08:44:59;46139.06;;;-144.79;100.00
19827;BME280;10074;52.018;4.726;2022-09-02T08:50:09;46129.03;;;-144.79;100.00
19827;BME280;10074;52.018;4.726;2022-09-02T08:55:18;46127.03;;;-144.79;100.00
19827;BME280;10074;52.018;4.726;2022-09-02T09:00:21;46155.09;;;-144.79;100.00
19827;BME280;10074;52.018;4.726;2022-09-02T09:05:32;46155.09;;;-144.79;100.00
19827;BME280;10074;52.018;4.726;2022-09-02T09:11:01;46145.06;;;-144.79;100.00
19827;BME280;10074;52.018;4.726;2022-09-02T09:21:29;46139.06;;;-144.79;100.00
19827;BME280;10074;52.018;4.726;2022-09-02T09:26:33;46125.03;;;-144.79;100.00
19827;BME280;10074;52.018;4.726;2022-09-02T09:31:38;46119.00;;;-144.79;100.00
19827;BME280;10074;52.018;4.726;2022-09-02T09:41:40;46119.00;;;-144.79;100.00
19827;BME280;10074;52.018;4.726;2022-09-02T09:46:40;46125.03;;;-144.79;100.00
19827;BME280;10074;52.018;4.726;2022-09-02T09:51:53;46127.03;;;-144.79;100.00
19827;BME280;10074;52.018;4.726;2022-09-02T09:56:54;46131.03;;;-144.79;100.00
19827;BME280;10074;52.018;4.726;2022-09-02T10:01:54;46113.00;;;-144.79;100.00
19827;BME280;10074;52.018;4.726;2022-09-02T10:06:55;46127.03;;;-144.79;100.00
19827;BME280;10074;52.018;4.726;2022-09-02T10:12:07;46104.97;;;-144.79;100.00
19827;BME280;10074;52.018;4.726;2022-09-02T10:22:40;46119.00;;;-144.79;100.00
19827;BME280;10074;52.018;4.726;2022-09-02T10:27:54;46127.03;;;-144.79;100.00
19827;BME280;10074;52.018;4.726;2022-09-02T10:38:34;46108.97;;;-144.79;100.00
19827;BME280;10074;52.018;4.726;2022-09-02T10:49:17;46129.03;;;-144.79;100.00
19827;BME280;10074;52.018;4.726;2022-09-02T10:54:53;46094.94;;;-144.79;100.00
19827;BME280;10074;52.018;4.726;2022-09-02T11:00:12;46131.03;;;-144.79;100.00
19827;BME280;10074;52.018;4.726;2022-09-02T11:10:26;46092.94;;;-144.79;100.00
19827;BME280;10074;52.018;4.726;2022-09-02T11:15:56;46098.97;;;-144.79;100.00
19827;BME280;10074;52.018;4.726;2022-09-02T11:21:10;46098.97;;;-144.79;100.00
19827;BME280;10074;52.018;4.726;2022-09-02T11:31:43;46119.00;;;-144.79;100.00
19827;BME280;10074;52.018;4.726;2022-09-02T11:36:47;46106.97;;;-144.79;100.00
19827;BME280;10074;52.018;4.726;2022-09-02T11:57:31;46123.00;;;-144.79;100.00
19827;BME280;10074;52.018;4.726;2022-09-02T12:02:36;46127.03;;;-144.79;100.00
19827;BME280;10074;52.018;4.726;2022-09-02T12:07:48;46129.03;;;-144.79;100.00
19827;BME280;10074;52.018;4.726;2022-09-02T12:22:49;46129.03;;;-144.79;100.00
19827;BME280;10074;52.018;4.726;2022-09-02T12:33:28;46108.97;;;-144.79;100.00
19827;BME280;10074;52.018;4.726;2022-09-02T12:38:39;46108.97;;;-144.79;100.00
19827;BME280;10074;52.018;4.726;2022-09-02T12:44:21;46106.97;;;-144.79;100.00
19827;BME280;10074;52.018;4.726;2022-09-02T12:49:35;46104.97;;;-144.79;100.00
19827;BME280;10074;52.018;4.726;2022-09-02T12:59:39;46092.94;;;-144.79;100.00
19827;BME280;10074;52.018;4.726;2022-09-02T13:05:05;46106.97;;;-144.79;100.00
19827;BME280;10074;52.018;4.726;2022-09-02T13:21:20;46092.94;;;-144.79;100.00
19827;BME280;10074;52.018;4.726;2022-09-02T13:32:00;46094.94;;;-144.79;100.00
19827;BME280;10074;52.018;4.726;2022-09-02T13:37:04;46096.94;;;-144.79;100.00
19827;BME280;10074;52.018;4.726;2022-09-02T13:42:16;46080.91;;;-144.79;100.00
19827;BME280;10074;52.018;4.726;2022-09-02T13:47:18;46076.91;;;-144.79;100.00
19827;BME280;10074;52.018;4.726;2022-09-02T13:52:20;46084.91;;;-144.79;100.00
19827;BME280;10074;52.018;4.726;2022-09-02T13:57:24;46110.97;;;-144.79;100.00
19827;BME280;10074;52.018;4.726;2022-09-02T14:02:33;46094.94;;;-144.79;100.00
19827;BME280;10074;52.018;4.726;2022-09-02T14:07:37;46102.97;;;-144.79;100.00
19827;BME280;10074;52.018;4.726;2022-09-02T14:12:40;46090.94;;;-144.79;100.00
19827;BME280;10074;52.018;4.726;2022-09-02T14:17:41;46082.91;;;-144.79;100.00
19827;BME280;10074;52.018;4.726;2022-09-02T14:22:42;46074.91;;;-144.79;100.00
19827;BME280;10074;52.018;4.726;2022-09-02T14:27:55;46106.97;;;-144.79;100.00
19827;BME280;10074;52.018;4.726;2022-09-02T14:38:25;46088.94;;;-144.79;100.00
19827;BME280;10074;52.018;4.726;2022-09-02T14:43:28;46115.00;;;-144.79;100.00
19827;BME280;10074;52.018;4.726;2022-09-02T14:48:36;46090.94;;;-144.79;100.00
19827;BME280;10074;52.018;4.726;2022-09-02T14:53:41;46113.00;;;-144.79;100.00
19827;BME280;10074;52.018;4.726;2022-09-02T14:58:42;46098.97;;;-144.79;100.00
19827;BME280;10074;52.018;4.726;2022-09-02T15:03:43;46094.94;;;-144.79;100.00
19827;BME280;10074;52.018;4.726;2022-09-02T15:08:43;46108.97;;;-144.79;100.00
19827;BME280;10074;52.018;4.726;2022-09-02T15:13:43;46102.97;;;-144.79;100.00
19827;BME280;10074;52.018;4.726;2022-09-02T15:18:44;46094.94;;;-144.79;100.00
19827;BME280;10074;52.018;4.726;2022-09-02T15:23:44;46106.97;;;-144.79;100.00
19827;BME280;10074;52.018;4.726;2022-09-02T15:28:45;46100.97;;;-144.79;100.00
19827;BME280;10074;52.018;4.726;2022-09-02T15:33:50;46104.97;;;-144.79;100.00
19827;BME280;10074;52.018;4.726;2022-09-02T15:38:50;46094.94;;;-144.79;100.00
19827;BME280;10074;52.018;4.726;2022-09-02T15:43:51;46119.00;;;-144.79;100.00
19827;BME280;10074;52.018;4.726;2022-09-02T15:48:53;46098.97;;;-144.79;100.00
19827;BME280;10074;52.018;4.726;2022-09-02T15:53:55;46104.97;;;-144.79;100.00
19827;BME280;10074;52.018;4.726;2022-09-02T15:59:03;46090.94;;;-144.79;100.00
19827;BME280;10074;52.018;4.726;2022-09-02T16:04:09;46100.97;;;-144.79;100.00
19827;BME280;10074;52.018;4.726;2022-09-02T16:32:57;46119.00;;;-144.79;100.00
19827;BME280;10074;52.018;4.726;2022-09-02T16:38:25;46086.94;;;-144.79;100.00
19827;BME280;10074;52.018;4.726;2022-09-02T16:43:25;46106.97;;;-144.79;100.00
19827;BME280;10074;52.018;4.726;2022-09-02T17:06:17;46082.91;;;-144.79;100.00
19827;BME280;10074;52.018;4.726;2022-09-02T17:11:37;46094.94;;;-144.79;100.00
19827;BME280;10074;52.018;4.726;2022-09-02T17:16:42;46096.94;;;-144.79;100.00
19827;BME280;10074;52.018;4.726;2022-09-02T17:21:44;46100.97;;;-144.79;100.00
19827;BME280;10074;52.018;4.726;2022-09-02T17:26:47;46090.94;;;-144.79;100.00
19827;BME280;10074;52.018;4.726;2022-09-02T17:31:49;46088.94;;;-144.79;100.00
19827;BME280;10074;52.018;4.726;2022-09-02T17:36:49;46102.97;;;-144.79;100.00
19827;BME280;10074;52.018;4.726;2022-09-02T17:41:50;46106.97;;;-144.79;100.00
19827;BME280;10074;52.018;4.726;2022-09-02T17:46:53;46104.97;;;-144.79;100.00
19827;BME280;10074;52.018;4.726;2022-09-02T17:51:54;46082.91;;;-144.79;100.00
19827;BME280;10074;52.018;4.726;2022-09-02T18:07:58;46098.97;;;-144.79;100.00
19827;BME280;10074;52.018;4.726;2022-09-02T18:12:39;46072.88;;;-144.79;100.00
19827;BME280;10074;52.018;4.726;2022-09-02T18:17:46;46098.97;;;-144.79;100.00
19827;BME280;10074;52.018;4.726;2022-09-02T18:28:18;46090.94;;;-144.79;100.00
19827;BME280;10074;52.018;4.726;2022-09-02T18:33:50;46086.94;;;-144.79;100.00
19827;BME280;10074;52.018;4.726;2022-09-02T18:49:36;46147.06;;;-144.79;100.00
19827;BME280;10074;52.018;4.726;2022-09-02T18:54:46;46145.06;;;-144.79;100.00
19827;BME280;10074;52.018;4.726;2022-09-02T18:59:59;46151.09;;;-144.79;100.00
19827;BME280;10074;52.018;4.726;2022-09-02T19:05:10;46149.06;;;-144.79;100.00
19827;BME280;10074;52.018;4.726;2022-09-02T19:10:11;46175.16;;;-144.79;100.00
19827;BME280;10074;52.018;4.726;2022-09-02T19:15:13;46141.06;;;-144.79;100.00
19827;BME280;10074;52.018;4.726;2022-09-02T19:20:14;46161.09;;;-144.79;100.00
19827;BME280;10074;52.018;4.726;2022-09-02T19:25:21;46159.09;;;-144.79;100.00
19827;BME280;10074;52.018;4.726;2022-09-02T19:30:22;46135.03;;;-144.79;100.00
19827;BME280;10074;52.018;4.726;2022-09-02T19:35:25;46145.06;;;-144.79;100.00
19827;BME280;10074;52.018;4.726;2022-09-02T19:40:30;46151.09;;;-144.79;100.00
19827;BME280;10074;52.018;4.726;2022-09-02T19:45:35;46165.13;;;-144.79;100.00
19827;BME280;10074;52.018;4.726;2022-09-02T19:50:38;46157.09;;;-144.79;100.00
19827;BME280;10074;52.018;4.726;2022-09-02T19:55:39;46139.06;;;-144.79;100.00
19827;BME280;10074;52.018;4.726;2022-09-02T20:00:40;46143.06;;;-144.79;100.00
19827;BME280;10074;52.018;4.726;2022-09-02T20:05:43;46141.06;;;-144.79;100.00
19827;BME280;10074;52.018;4.726;2022-09-02T20:10:52;46135.03;;;-144.79;100.00
19827;BME280;10074;52.018;4.726;2022-09-02T20:15:54;46153.09;;;-144.79;100.00
19827;BME280;10074;52.018;4.726;2022-09-02T20:20:57;46151.09;;;-144.79;100.00
19827;BME280;10074;52.018;4.726;2022-09-02T20:26:14;46133.03;;;-144.79;100.00
19827;BME280;10074;52.018;4.726;2022-09-02T20:37:25;46119.00;;;-144.79;100.00
19827;BME280;10074;52.018;4.726;2022-09-02T20:42:53;46119.00;;;-144.79;100.00
19827;BME280;10074;52.018;4.726;2022-09-02T20:48:12;46127.03;;;-144.79;100.00
19827;BME280;10074;52.018;4.726;2022-09-02T20:59:03;46127.03;;;-144.79;100.00
19827;BME280;10074;52.018;4.726;2022-09-02T21:09:36;46141.06;;;-144.79;100.00
19827;BME280;10074;52.018;4.726;2022-09-02T21:14:43;46131.03;;;-144.79;100.00
19827;BME280;10074;52.018;4.726;2022-09-02T21:19:57;46133.03;;;-144.79;100.00
19827;BME280;10074;52.018;4.726;2022-09-02T21:25:11;46143.06;;;-144.79;100.00
19827;BME280;10074;52.018;4.726;2022-09-02T21:30:19;46131.03;;;-144.79;100.00
19827;BME280;10074;52.018;4.726;2022-09-02T21:35:23;46110.97;;;-144.79;100.00
19827;BME280;10074;52.018;4.726;2022-09-02T21:40:34;46104.97;;;-144.79;100.00
19827;BME280;10074;52.018;4.726;2022-09-02T21:45:57;46115.00;;;-144.79;100.00
19827;BME280;10074;52.018;4.726;2022-09-02T21:51:19;46094.94;;;-144.79;100.00
19827;BME280;10074;52.018;4.726;2022-09-02T21:56:47;46113.00;;;-144.79;100.00
19827;BME280;10074;52.018;4.726;2022-09-02T22:02:04;46119.00;;;-144.79;100.00
19827;BME280;10074;52.018;4.726;2022-09-02T22:07:15;46110.97;;;-144.79;100.00
19827;BME280;10074;52.018;4.726;2022-09-02T22:12:20;46094.94;;;-144.79;100.00
19827;BME280;10074;52.018;4.726;2022-09-02T22:17:26;46119.00;;;-144.79;100.00
19827;BME280;10074;52.018;4.726;2022-09-02T22:22:34;46098.97;;;-144.79;100.00
19827;BME280;10074;52.018;4.726;2022-09-02T22:27:42;46115.00;;;-144.79;100.00
19827;BME280;10074;52.018;4.726;2022-09-02T22:32:59;46088.94;;;-144.79;100.00
19827;BME280;10074;52.018;4.726;2022-09-02T22:38:21;46110.97;;;-144.79;100.00
19827;BME280;10074;52.018;4.726;2022-09-02T22:43:33;46096.94;;;-144.79;100.00
19827;BME280;10074;52.018;4.726;2022-09-02T22:48:52;46100.97;;;-144.79;100.00
19827;BME280;10074;52.018;4.726;2022-09-02T22:54:12;46082.91;;;-144.79;100.00
19827;BME280;10074;52.018;4.726;2022-09-02T23:04:44;46088.94;;;-144.79;100.00
19827;BME280;10074;52.018;4.726;2022-09-02T23:09:50;46100.97;;;-144.79;100.00
19827;BME280;10074;52.018;4.726;2022-09-02T23:15:24;46113.00;;;-144.79;100.00
19827;BME280;10074;52.018;4.726;2022-09-02T23:20:38;46098.97;;;-144.79;100.00
19827;BME280;10074;52.018;4.726;2022-09-02T23:31:44;46094.94;;;-144.79;100.00
19827;BME280;10074;52.018;4.726;2022-09-02T23:37:10;46100.97;;;-144.79;100.00
19827;BME280;10074;52.018;4.726;2022-09-02T23:42:14;46082.91;;;-144.79;100.00
19827;BME280;10074;52.018;4.726;2022-09-02T23:52:50;46106.97;;;-144.79;100.00
